sensor_id;sensor_type;location;lat;lon;timestamp;temperature;humidity
27423;DHT22;14878;50.778;0.258;2022-07-12T00:00:41;19.70;99.90
27423;DHT22;14878;50.778;0.258;2022-07-12T00:01:41;19.70;99.90
27423;DHT22;14878;50.778;0.258;2022-07-12T00:02:42;19.80;99.90
27423;DHT22;14878;50.778;0.258;2022-07-12T00:03:43;19.80;99.90
27423;DHT22;14878;50.778;0.258;2022-07-12T00:04:44;19.80;99.90
27423;DHT22;14878;50.778;0.258;2022-07-12T00:05:45;19.70;99.90
27423;DHT22;14878;50.778;0.258;2022-07-12T00:06:46;19.70;99.90
27423;DHT22;14878;50.778;0.258;2022-07-12T00:07:47;19.60;99.90
27423;DHT22;14878;50.778;0.258;2022-07-12T00:08:47;19.60;99.90
27423;DHT22;14878;50.778;0.258;2022-07-12T00:09:48;19.70;99.90
27423;DHT22;14878;50.778;0.258;2022-07-12T00:10:49;19.80;99.90
27423;DHT22;14878;50.778;0.258;2022-07-12T00:11:50;19.90;99.90
27423;DHT22;14878;50.778;0.258;2022-07-12T00:12:51;19.90;99.90
27423;DHT22;14878;50.778;0.258;2022-07-12T00:13:52;19.90;99.90
27423;DHT22;14878;50.778;0.258;2022-07-12T00:14:53;19.90;99.90
27423;DHT22;14878;50.778;0.258;2022-07-12T00:15:53;20.00;99.90
27423;DHT22;14878;50.778;0.258;2022-07-12T00:16:54;20.00;99.90
27423;DHT22;14878;50.778;0.258;2022-07-12T00:17:55;20.10;99.90
27423;DHT22;14878;50.778;0.258;2022-07-12T00:18:56;20.10;99.90
27423;DHT22;14878;50.778;0.258;2022-07-12T00:19:57;20.10;99.90
27423;DHT22;14878;50.778;0.258;2022-07-12T00:20:58;20.20;99.90
27423;DHT22;14878;50.778;0.258;2022-07-12T00:21:59;20.30;99.90
27423;DHT22;14878;50.778;0.258;2022-07-12T00:22:59;20.30;99.90
27423;DHT22;14878;50.778;0.258;2022-07-12T00:24:00;20.40;99.90
27423;DHT22;14878;50.778;0.258;2022-07-12T00:25:01;20.50;99.90
27423;DHT22;14878;50.778;0.258;2022-07-12T00:26:02;20.50;99.90
27423;DHT22;14878;50.778;0.258;2022-07-12T00:27:05;20.50;99.90
27423;DHT22;14878;50.778;0.258;2022-07-12T00:28:06;20.50;99.90
27423;DHT22;14878;50.778;0.258;2022-07-12T00:29:07;20.30;99.90
27423;DHT22;14878;50.778;0.258;2022-07-12T00:30:08;20.30;99.90
27423;DHT22;14878;50.778;0.258;2022-07-12T00:31:09;20.30;99.90
27423;DHT22;14878;50.778;0.258;2022-07-12T00:32:10;20.30;99.90
27423;DHT22;14878;50.778;0.258;2022-07-12T00:33:11;20.30;99.90
27423;DHT22;14878;50.778;0.258;2022-07-12T00:34:12;20.30;99.90
27423;DHT22;14878;50.778;0.258;2022-07-12T00:35:14;20.30;99.90
27423;DHT22;14878;50.778;0.258;2022-07-12T00:36:15;20.20;99.90
27423;DHT22;14878;50.778;0.258;2022-07-12T00:37:16;20.20;99.90
27423;DHT22;14878;50.778;0.258;2022-07-12T00:38:17;20.10;99.90
27423;DHT22;14878;50.778;0.258;2022-07-12T00:39:18;19.40;99.90
27423;DHT22;14878;50.778;0.258;2022-07-12T00:40:19;20.00;99.90
27423;DHT22;14878;50.778;0.258;2022-07-12T00:41:20;20.00;99.90
27423;DHT22;14878;50.778;0.258;2022-07-12T00:42:20;19.90;99.90
27423;DHT22;14878;50.778;0.258;2022-07-12T00:43:21;19.90;99.90
27423;DHT22;14878;50.778;0.258;2022-07-12T00:44:22;19.80;99.90
27423;DHT22;14878;50.778;0.258;2022-07-12T00:45:23;19.80;99.90
27423;DHT22;14878;50.778;0.258;2022-07-12T00:46:24;19.80;99.90
27423;DHT22;14878;50.778;0.258;2022-07-12T00:47:45;19.70;99.90
27423;DHT22;14878;50.778;0.258;2022-07-12T00:48:46;19.60;99.90
27423;DHT22;14878;50.778;0.258;2022-07-12T00:49:47;19.50;99.90
27423;DHT22;14878;50.778;0.258;2022-07-12T00:50:48;19.50;99.90
27423;DHT22;14878;50.778;0.258;2022-07-12T00:51:52;19.40;99.90
27423;DHT22;14878;50.778;0.258;2022-07-12T00:52:55;19.50;99.90
27423;DHT22;14878;50.778;0.258;2022-07-12T00:53:56;19.50;99.90
27423;DHT22;14878;50.778;0.258;2022-07-12T00:54:58;19.50;99.90
27423;DHT22;14878;50.778;0.258;2022-07-12T00:55:59;19.50;99.90
27423;DHT22;14878;50.778;0.258;2022-07-12T00:57:00;19.50;99.90
27423;DHT22;14878;50.778;0.258;2022-07-12T00:58:01;19.50;99.90
27423;DHT22;14878;50.778;0.258;2022-07-12T00:59:02;19.50;99.90
27423;DHT22;14878;50.778;0.258;2022-07-12T01:00:07;19.50;99.90
27423;DHT22;14878;50.778;0.258;2022-07-12T01:01:10;19.50;99.90
27423;DHT22;14878;50.778;0.258;2022-07-12T01:02:11;19.40;99.90
27423;DHT22;14878;50.778;0.258;2022-07-12T01:03:15;19.40;99.90
27423;DHT22;14878;50.778;0.258;2022-07-12T01:04:16;19.40;99.90
27423;DHT22;14878;50.778;0.258;2022-07-12T01:05:19;19.50;99.90
27423;DHT22;14878;50.778;0.258;2022-07-12T01:06:20;19.50;99.90
27423;DHT22;14878;50.778;0.258;2022-07-12T01:07:22;19.50;99.90
27423;DHT22;14878;50.778;0.258;2022-07-12T01:08:25;19.50;99.90
27423;DHT22;14878;50.778;0.258;2022-07-12T01:09:28;19.50;99.90
27423;DHT22;14878;50.778;0.258;2022-07-12T01:10:30;19.50;99.90
27423;DHT22;14878;50.778;0.258;2022-07-12T01:11:31;19.50;99.90
27423;DHT22;14878;50.778;0.258;2022-07-12T01:12:32;19.60;99.90
27423;DHT22;14878;50.778;0.258;2022-07-12T01:13:34;19.60;99.90
27423;DHT22;14878;50.778;0.258;2022-07-12T01:14:38;19.60;99.90
27423;DHT22;14878;50.778;0.258;2022-07-12T01:15:40;19.50;99.90
27423;DHT22;14878;50.778;0.258;2022-07-12T01:16:42;19.50;99.90
27423;DHT22;14878;50.778;0.258;2022-07-12T01:17:44;19.50;99.90
27423;DHT22;14878;50.778;0.258;2022-07-12T01:18:45;19.50;99.90
27423;DHT22;14878;50.778;0.258;2022-07-12T01:19:51;19.60;99.90
27423;DHT22;14878;50.778;0.258;2022-07-12T01:20:53;19.60;99.90
27423;DHT22;14878;50.778;0.258;2022-07-12T01:21:56;19.60;99.90
27423;DHT22;14878;50.778;0.258;2022-07-12T01:22:58;19.60;99.90
27423;DHT22;14878;50.778;0.258;2022-07-12T01:24:00;19.50;99.90
27423;DHT22;14878;50.778;0.258;2022-07-12T01:25:06;19.50;99.90
27423;DHT22;14878;50.778;0.258;2022-07-12T01:26:13;19.50;99.90
27423;DHT22;14878;50.778;0.258;2022-07-12T01:27:14;19.40;99.90
27423;DHT22;14878;50.778;0.258;2022-07-12T01:28:15;19.40;99.90
27423;DHT22;14878;50.778;0.258;2022-07-12T01:29:16;19.50;99.90
27423;DHT22;14878;50.778;0.258;2022-07-12T01:30:17;19.40;99.90
27423;DHT22;14878;50.778;0.258;2022-07-12T01:31:18;19.40;99.90
27423;DHT22;14878;50.778;0.258;2022-07-12T01:32:19;19.40;99.90
27423;DHT22;14878;50.778;0.258;2022-07-12T01:33:26;19.60;99.90
27423;DHT22;14878;50.778;0.258;2022-07-12T01:34:28;19.50;99.90
27423;DHT22;14878;50.778;0.258;2022-07-12T01:35:29;19.50;99.90
27423;DHT22;14878;50.778;0.258;2022-07-12T01:36:31;19.40;99.90
27423;DHT22;14878;50.778;0.258;2022-07-12T01:37:35;19.40;99.90
27423;DHT22;14878;50.778;0.258;2022-07-12T01:38:36;19.30;99.90
27423;DHT22;14878;50.778;0.258;2022-07-12T01:39:36;19.30;99.90
27423;DHT22;14878;50.778;0.258;2022-07-12T01:40:39;19.30;99.90
27423;DHT22;14878;50.778;0.258;2022-07-12T01:41:40;19.30;99.90
27423;DHT22;14878;50.778;0.258;2022-07-12T01:42:41;19.20;99.90
27423;DHT22;14878;50.778;0.258;2022-07-12T01:43:44;19.20;99.90
27423;DHT22;14878;50.778;0.258;2022-07-12T01:44:45;19.20;99.90
27423;DHT22;14878;50.778;0.258;2022-07-12T01:45:46;19.20;99.90
27423;DHT22;14878;50.778;0.258;2022-07-12T01:46:46;19.20;99.90
27423;DHT22;14878;50.778;0.258;2022-07-12T01:47:47;19.10;99.90
27423;DHT22;14878;50.778;0.258;2022-07-12T01:48:49;19.00;99.90
27423;DHT22;14878;50.778;0.258;2022-07-12T01:49:50;18.90;99.90
27423;DHT22;14878;50.778;0.258;2022-07-12T01:50:51;18.90;99.90
27423;DHT22;14878;50.778;0.258;2022-07-12T01:51:57;19.00;99.90
27423;DHT22;14878;50.778;0.258;2022-07-12T01:53:00;18.80;99.90
27423;DHT22;14878;50.778;0.258;2022-07-12T01:54:01;18.80;99.90
27423;DHT22;14878;50.778;0.258;2022-07-12T01:55:02;18.40;99.90
27423;DHT22;14878;50.778;0.258;2022-07-12T01:56:04;18.90;99.90
27423;DHT22;14878;50.778;0.258;2022-07-12T01:57:05;18.90;99.90
27423;DHT22;14878;50.778;0.258;2022-07-12T01:58:06;18.90;99.90
27423;DHT22;14878;50.778;0.258;2022-07-12T01:59:07;18.80;99.90
27423;DHT22;14878;50.778;0.258;2022-07-12T02:00:10;18.80;99.90
27423;DHT22;14878;50.778;0.258;2022-07-12T02:01:17;18.80;99.90
27423;DHT22;14878;50.778;0.258;2022-07-12T02:02:18;18.80;99.90
27423;DHT22;14878;50.778;0.258;2022-07-12T02:03:19;18.80;99.90
27423;DHT22;14878;50.778;0.258;2022-07-12T02:04:20;18.70;99.90
27423;DHT22;14878;50.778;0.258;2022-07-12T02:05:21;18.70;99.90
27423;DHT22;14878;50.778;0.258;2022-07-12T02:06:22;18.80;99.90
27423;DHT22;14878;50.778;0.258;2022-07-12T02:07:23;18.70;99.90
27423;DHT22;14878;50.778;0.258;2022-07-12T02:08:25;18.70;99.90
27423;DHT22;14878;50.778;0.258;2022-07-12T02:09:26;18.70;99.90
27423;DHT22;14878;50.778;0.258;2022-07-12T02:10:29;18.70;99.90
27423;DHT22;14878;50.778;0.258;2022-07-12T02:11:30;18.80;99.90
27423;DHT22;14878;50.778;0.258;2022-07-12T02:12:31;18.80;99.90
27423;DHT22;14878;50.778;0.258;2022-07-12T02:13:32;18.80;99.90
27423;DHT22;14878;50.778;0.258;2022-07-12T02:14:33;18.80;99.90
27423;DHT22;14878;50.778;0.258;2022-07-12T02:15:34;18.80;99.90
27423;DHT22;14878;50.778;0.258;2022-07-12T02:16:35;18.90;99.90
27423;DHT22;14878;50.778;0.258;2022-07-12T02:17:36;18.90;99.90
27423;DHT22;14878;50.778;0.258;2022-07-12T02:18:36;19.00;99.90
27423;DHT22;14878;50.778;0.258;2022-07-12T02:19:37;19.00;99.90
27423;DHT22;14878;50.778;0.258;2022-07-12T02:20:38;19.00;99.90
27423;DHT22;14878;50.778;0.258;2022-07-12T02:21:39;18.90;99.90
27423;DHT22;14878;50.778;0.258;2022-07-12T02:22:40;18.90;99.90
27423;DHT22;14878;50.778;0.258;2022-07-12T02:23:41;18.90;99.90
27423;DHT22;14878;50.778;0.258;2022-07-12T02:24:42;18.90;99.90
27423;DHT22;14878;50.778;0.258;2022-07-12T02:25:42;18.90;99.90
27423;DHT22;14878;50.778;0.258;2022-07-12T02:26:43;18.90;99.90
27423;DHT22;14878;50.778;0.258;2022-07-12T02:27:44;19.00;99.90
27423;DHT22;14878;50.778;0.258;2022-07-12T02:28:45;18.90;99.90
27423;DHT22;14878;50.778;0.258;2022-07-12T02:29:46;19.00;99.90
27423;DHT22;14878;50.778;0.258;2022-07-12T02:30:47;19.00;99.90
27423;DHT22;14878;50.778;0.258;2022-07-12T02:31:48;19.10;99.90
27423;DHT22;14878;50.778;0.258;2022-07-12T02:32:48;19.10;99.90
27423;DHT22;14878;50.778;0.258;2022-07-12T02:33:49;19.00;99.90
27423;DHT22;14878;50.778;0.258;2022-07-12T02:34:50;18.90;99.90
27423;DHT22;14878;50.778;0.258;2022-07-12T02:35:51;18.90;99.90
27423;DHT22;14878;50.778;0.258;2022-07-12T02:36:51;18.80;99.90
27423;DHT22;14878;50.778;0.258;2022-07-12T02:37:52;18.80;99.90
27423;DHT22;14878;50.778;0.258;2022-07-12T02:38:53;18.80;99.90
27423;DHT22;14878;50.778;0.258;2022-07-12T02:39:54;18.80;99.90
27423;DHT22;14878;50.778;0.258;2022-07-12T02:41:13;18.80;99.90
27423;DHT22;14878;50.778;0.258;2022-07-12T02:42:14;18.80;99.90
27423;DHT22;14878;50.778;0.258;2022-07-12T02:43:17;18.80;99.90
27423;DHT22;14878;50.778;0.258;2022-07-12T02:44:18;18.80;99.90
27423;DHT22;14878;50.778;0.258;2022-07-12T02:45:20;18.90;99.90
27423;DHT22;14878;50.778;0.258;2022-07-12T02:46:21;18.90;99.90
27423;DHT22;14878;50.778;0.258;2022-07-12T02:47:22;19.00;99.90
27423;DHT22;14878;50.778;0.258;2022-07-12T02:48:22;19.10;99.90
27423;DHT22;14878;50.778;0.258;2022-07-12T02:49:23;19.20;99.90
27423;DHT22;14878;50.778;0.258;2022-07-12T02:50:24;19.30;99.90
27423;DHT22;14878;50.778;0.258;2022-07-12T02:51:25;19.40;99.90
27423;DHT22;14878;50.778;0.258;2022-07-12T02:52:25;19.30;99.90
27423;DHT22;14878;50.778;0.258;2022-07-12T02:53:26;19.20;99.90
27423;DHT22;14878;50.778;0.258;2022-07-12T02:54:27;19.10;99.90
27423;DHT22;14878;50.778;0.258;2022-07-12T02:55:28;19.00;99.90
27423;DHT22;14878;50.778;0.258;2022-07-12T02:56:29;19.00;99.90
27423;DHT22;14878;50.778;0.258;2022-07-12T02:57:29;18.90;99.90
27423;DHT22;14878;50.778;0.258;2022-07-12T02:58:30;18.80;99.90
27423;DHT22;14878;50.778;0.258;2022-07-12T02:59:31;18.70;99.90
27423;DHT22;14878;50.778;0.258;2022-07-12T03:00:32;18.60;99.90
27423;DHT22;14878;50.778;0.258;2022-07-12T03:01:33;18.50;99.90
27423;DHT22;14878;50.778;0.258;2022-07-12T03:02:34;18.40;99.90
27423;DHT22;14878;50.778;0.258;2022-07-12T03:03:35;18.30;99.90
27423;DHT22;14878;50.778;0.258;2022-07-12T03:04:35;18.10;99.90
27423;DHT22;14878;50.778;0.258;2022-07-12T03:05:37;18.10;99.90
27423;DHT22;14878;50.778;0.258;2022-07-12T03:06:40;18.10;99.90
27423;DHT22;14878;50.778;0.258;2022-07-12T03:07:41;18.20;99.90
27423;DHT22;14878;50.778;0.258;2022-07-12T03:08:42;18.30;99.90
27423;DHT22;14878;50.778;0.258;2022-07-12T03:09:43;18.30;99.90
27423;DHT22;14878;50.778;0.258;2022-07-12T03:10:44;18.30;99.90
27423;DHT22;14878;50.778;0.258;2022-07-12T03:11:44;18.40;99.90
27423;DHT22;14878;50.778;0.258;2022-07-12T03:12:45;18.40;99.90
27423;DHT22;14878;50.778;0.258;2022-07-12T03:13:46;18.40;99.90
27423;DHT22;14878;50.778;0.258;2022-07-12T03:14:47;18.40;99.90
27423;DHT22;14878;50.778;0.258;2022-07-12T03:15:48;18.50;99.90
27423;DHT22;14878;50.778;0.258;2022-07-12T03:16:50;18.50;99.90
27423;DHT22;14878;50.778;0.258;2022-07-12T03:17:51;18.50;99.90
27423;DHT22;14878;50.778;0.258;2022-07-12T03:18:52;18.40;99.90
27423;DHT22;14878;50.778;0.258;2022-07-12T03:19:53;18.40;99.90
27423;DHT22;14878;50.778;0.258;2022-07-12T03:20:53;18.30;99.90
27423;DHT22;14878;50.778;0.258;2022-07-12T03:21:54;18.30;99.90
27423;DHT22;14878;50.778;0.258;2022-07-12T03:22:55;18.30;99.90
27423;DHT22;14878;50.778;0.258;2022-07-12T03:23:56;18.30;99.90
27423;DHT22;14878;50.778;0.258;2022-07-12T03:24:57;18.20;99.90
27423;DHT22;14878;50.778;0.258;2022-07-12T03:25:57;18.30;99.90
27423;DHT22;14878;50.778;0.258;2022-07-12T03:26:58;18.30;99.90
27423;DHT22;14878;50.778;0.258;2022-07-12T03:27:59;18.40;99.90
27423;DHT22;14878;50.778;0.258;2022-07-12T03:29:00;18.40;99.90
27423;DHT22;14878;50.778;0.258;2022-07-12T03:30:02;18.40;99.90
27423;DHT22;14878;50.778;0.258;2022-07-12T03:31:03;18.40;99.90
27423;DHT22;14878;50.778;0.258;2022-07-12T03:32:04;18.50;99.90
27423;DHT22;14878;50.778;0.258;2022-07-12T03:33:04;18.40;99.90
27423;DHT22;14878;50.778;0.258;2022-07-12T03:34:05;18.40;99.90
27423;DHT22;14878;50.778;0.258;2022-07-12T03:35:06;18.30;99.90
27423;DHT22;14878;50.778;0.258;2022-07-12T03:36:07;18.30;99.90
27423;DHT22;14878;50.778;0.258;2022-07-12T03:37:09;18.20;99.90
27423;DHT22;14878;50.778;0.258;2022-07-12T03:38:12;18.20;99.90
27423;DHT22;14878;50.778;0.258;2022-07-12T03:39:13;18.30;99.90
27423;DHT22;14878;50.778;0.258;2022-07-12T03:40:15;18.30;99.90
27423;DHT22;14878;50.778;0.258;2022-07-12T03:41:16;18.30;99.90
27423;DHT22;14878;50.778;0.258;2022-07-12T03:42:17;18.30;99.90
27423;DHT22;14878;50.778;0.258;2022-07-12T03:43:18;18.30;99.90
27423;DHT22;14878;50.778;0.258;2022-07-12T03:44:19;18.30;99.90
27423;DHT22;14878;50.778;0.258;2022-07-12T03:45:22;18.30;99.90
27423;DHT22;14878;50.778;0.258;2022-07-12T03:46:23;18.30;99.90
27423;DHT22;14878;50.778;0.258;2022-07-12T03:47:23;18.30;99.90
27423;DHT22;14878;50.778;0.258;2022-07-12T03:48:24;18.30;99.90
27423;DHT22;14878;50.778;0.258;2022-07-12T03:49:28;18.30;99.90
27423;DHT22;14878;50.778;0.258;2022-07-12T03:50:28;18.40;99.90
27423;DHT22;14878;50.778;0.258;2022-07-12T03:51:32;18.40;99.90
27423;DHT22;14878;50.778;0.258;2022-07-12T03:52:33;18.40;99.90
27423;DHT22;14878;50.778;0.258;2022-07-12T03:53:34;18.40;99.90
27423;DHT22;14878;50.778;0.258;2022-07-12T03:54:35;18.40;99.90
27423;DHT22;14878;50.778;0.258;2022-07-12T03:55:35;18.40;99.90
27423;DHT22;14878;50.778;0.258;2022-07-12T03:56:36;18.20;99.90
27423;DHT22;14878;50.778;0.258;2022-07-12T03:57:56;18.30;99.90
27423;DHT22;14878;50.778;0.258;2022-07-12T03:58:57;18.40;99.90
27423;DHT22;14878;50.778;0.258;2022-07-12T03:59:58;18.40;99.90
27423;DHT22;14878;50.778;0.258;2022-07-12T04:00:58;18.40;99.90
27423;DHT22;14878;50.778;0.258;2022-07-12T04:01:59;18.40;99.90
27423;DHT22;14878;50.778;0.258;2022-07-12T04:03:02;18.50;99.90
27423;DHT22;14878;50.778;0.258;2022-07-12T04:04:02;18.50;99.90
27423;DHT22;14878;50.778;0.258;2022-07-12T04:05:04;18.40;99.90
27423;DHT22;14878;50.778;0.258;2022-07-12T04:06:06;18.40;99.90
27423;DHT22;14878;50.778;0.258;2022-07-12T04:07:07;18.30;99.90
27423;DHT22;14878;50.778;0.258;2022-07-12T04:08:08;18.20;99.90
27423;DHT22;14878;50.778;0.258;2022-07-12T04:09:09;18.20;99.90
27423;DHT22;14878;50.778;0.258;2022-07-12T04:10:09;18.10;99.90
27423;DHT22;14878;50.778;0.258;2022-07-12T04:11:10;18.10;99.90
27423;DHT22;14878;50.778;0.258;2022-07-12T04:12:11;18.20;99.90
27423;DHT22;14878;50.778;0.258;2022-07-12T04:13:12;18.20;99.90
27423;DHT22;14878;50.778;0.258;2022-07-12T04:14:13;18.30;99.90
27423;DHT22;14878;50.778;0.258;2022-07-12T04:15:13;18.30;99.90
27423;DHT22;14878;50.778;0.258;2022-07-12T04:16:14;18.30;99.90
27423;DHT22;14878;50.778;0.258;2022-07-12T04:17:15;18.30;99.90
27423;DHT22;14878;50.778;0.258;2022-07-12T04:18:16;18.30;99.90
27423;DHT22;14878;50.778;0.258;2022-07-12T04:19:17;18.30;99.90
27423;DHT22;14878;50.778;0.258;2022-07-12T04:20:17;18.40;99.90
27423;DHT22;14878;50.778;0.258;2022-07-12T04:21:18;18.40;99.90
27423;DHT22;14878;50.778;0.258;2022-07-12T04:22:19;18.50;99.90
27423;DHT22;14878;50.778;0.258;2022-07-12T04:23:20;18.50;99.90
27423;DHT22;14878;50.778;0.258;2022-07-12T04:24:21;18.50;99.90
27423;DHT22;14878;50.778;0.258;2022-07-12T04:25:24;18.50;99.90
27423;DHT22;14878;50.778;0.258;2022-07-12T04:26:25;18.50;99.90
27423;DHT22;14878;50.778;0.258;2022-07-12T04:27:26;18.60;99.90
27423;DHT22;14878;50.778;0.258;2022-07-12T04:28:30;18.60;99.90
27423;DHT22;14878;50.778;0.258;2022-07-12T04:29:31;18.60;99.90
27423;DHT22;14878;50.778;0.258;2022-07-12T04:30:32;18.60;99.90
27423;DHT22;14878;50.778;0.258;2022-07-12T04:31:33;18.60;99.90
27423;DHT22;14878;50.778;0.258;2022-07-12T04:32:33;18.60;99.90
27423;DHT22;14878;50.778;0.258;2022-07-12T04:33:34;18.60;99.90
27423;DHT22;14878;50.778;0.258;2022-07-12T04:34:35;18.70;99.90
27423;DHT22;14878;50.778;0.258;2022-07-12T04:35:37;18.70;99.90
27423;DHT22;14878;50.778;0.258;2022-07-12T04:36:40;18.80;99.90
27423;DHT22;14878;50.778;0.258;2022-07-12T04:37:41;18.70;99.90
27423;DHT22;14878;50.778;0.258;2022-07-12T04:38:45;18.70;99.90
27423;DHT22;14878;50.778;0.258;2022-07-12T04:39:46;18.90;99.90
27423;DHT22;14878;50.778;0.258;2022-07-12T04:40:46;18.90;99.90
27423;DHT22;14878;50.778;0.258;2022-07-12T04:41:47;18.70;99.90
27423;DHT22;14878;50.778;0.258;2022-07-12T04:42:48;18.70;99.90
27423;DHT22;14878;50.778;0.258;2022-07-12T04:43:48;18.70;99.90
27423;DHT22;14878;50.778;0.258;2022-07-12T04:44:53;18.80;99.90
27423;DHT22;14878;50.778;0.258;2022-07-12T04:45:54;18.90;99.90
27423;DHT22;14878;50.778;0.258;2022-07-12T04:46:55;19.00;99.90
27423;DHT22;14878;50.778;0.258;2022-07-12T04:47:58;19.10;99.90
27423;DHT22;14878;50.778;0.258;2022-07-12T04:48:59;19.10;99.90
27423;DHT22;14878;50.778;0.258;2022-07-12T04:50:04;19.20;99.90
27423;DHT22;14878;50.778;0.258;2022-07-12T04:51:05;19.60;99.90
27423;DHT22;14878;50.778;0.258;2022-07-12T04:52:06;19.30;99.90
27423;DHT22;14878;50.778;0.258;2022-07-12T04:53:07;19.40;99.90
27423;DHT22;14878;50.778;0.258;2022-07-12T04:54:08;19.30;99.90
27423;DHT22;14878;50.778;0.258;2022-07-12T04:55:09;19.20;99.90
27423;DHT22;14878;50.778;0.258;2022-07-12T04:56:10;19.30;99.90
27423;DHT22;14878;50.778;0.258;2022-07-12T04:57:10;19.20;99.90
27423;DHT22;14878;50.778;0.258;2022-07-12T04:58:11;19.20;99.90
27423;DHT22;14878;50.778;0.258;2022-07-12T04:59:12;19.10;99.90
27423;DHT22;14878;50.778;0.258;2022-07-12T05:00:16;19.30;99.90
27423;DHT22;14878;50.778;0.258;2022-07-12T05:01:17;19.40;99.90
27423;DHT22;14878;50.778;0.258;2022-07-12T05:02:17;19.50;99.90
27423;DHT22;14878;50.778;0.258;2022-07-12T05:03:18;19.60;99.90
27423;DHT22;14878;50.778;0.258;2022-07-12T05:04:19;19.60;99.90
27423;DHT22;14878;50.778;0.258;2022-07-12T05:05:21;19.70;99.90
27423;DHT22;14878;50.778;0.258;2022-07-12T05:06:22;19.70;99.90
27423;DHT22;14878;50.778;0.258;2022-07-12T05:07:23;19.80;99.90
27423;DHT22;14878;50.778;0.258;2022-07-12T05:08:24;19.70;99.90
27423;DHT22;14878;50.778;0.258;2022-07-12T05:09:25;19.60;99.90
27423;DHT22;14878;50.778;0.258;2022-07-12T05:10:26;19.60;99.90
27423;DHT22;14878;50.778;0.258;2022-07-12T05:11:26;19.60;99.90
27423;DHT22;14878;50.778;0.258;2022-07-12T05:12:30;19.60;99.90
27423;DHT22;14878;50.778;0.258;2022-07-12T05:13:31;19.60;99.90
27423;DHT22;14878;50.778;0.258;2022-07-12T05:14:32;19.70;99.90
27423;DHT22;14878;50.778;0.258;2022-07-12T05:15:33;19.80;99.90
27423;DHT22;14878;50.778;0.258;2022-07-12T05:16:34;19.90;99.90
27423;DHT22;14878;50.778;0.258;2022-07-12T05:17:34;19.90;99.90
27423;DHT22;14878;50.778;0.258;2022-07-12T05:18:35;20.00;99.90
27423;DHT22;14878;50.778;0.258;2022-07-12T05:19:39;20.20;99.90
27423;DHT22;14878;50.778;0.258;2022-07-12T05:20:40;20.30;99.90
27423;DHT22;14878;50.778;0.258;2022-07-12T05:21:42;20.40;99.90
27423;DHT22;14878;50.778;0.258;2022-07-12T05:22:43;20.50;99.90
27423;DHT22;14878;50.778;0.258;2022-07-12T05:23:43;20.60;99.90
27423;DHT22;14878;50.778;0.258;2022-07-12T05:24:44;20.70;99.90
27423;DHT22;14878;50.778;0.258;2022-07-12T05:25:45;20.80;99.90
27423;DHT22;14878;50.778;0.258;2022-07-12T05:26:46;20.90;99.90
27423;DHT22;14878;50.778;0.258;2022-07-12T05:27:47;20.90;99.90
27423;DHT22;14878;50.778;0.258;2022-07-12T05:28:47;21.00;99.90
27423;DHT22;14878;50.778;0.258;2022-07-12T05:29:48;21.10;99.90
27423;DHT22;14878;50.778;0.258;2022-07-12T05:30:49;21.10;99.90
27423;DHT22;14878;50.778;0.258;2022-07-12T05:31:50;21.20;99.90
27423;DHT22;14878;50.778;0.258;2022-07-12T05:32:50;21.20;99.90
27423;DHT22;14878;50.778;0.258;2022-07-12T05:33:51;21.20;99.90
27423;DHT22;14878;50.778;0.258;2022-07-12T05:34:52;21.30;99.90
27423;DHT22;14878;50.778;0.258;2022-07-12T05:35:53;21.30;99.90
27423;DHT22;14878;50.778;0.258;2022-07-12T05:36:54;21.40;99.90
27423;DHT22;14878;50.778;0.258;2022-07-12T05:37:55;21.40;99.90
27423;DHT22;14878;50.778;0.258;2022-07-12T05:38:56;21.50;99.90
27423;DHT22;14878;50.778;0.258;2022-07-12T05:39:56;21.50;99.90
27423;DHT22;14878;50.778;0.258;2022-07-12T05:40:57;21.50;99.90
27423;DHT22;14878;50.778;0.258;2022-07-12T05:41:58;21.60;99.90
27423;DHT22;14878;50.778;0.258;2022-07-12T05:42:59;21.70;99.90
27423;DHT22;14878;50.778;0.258;2022-07-12T05:43:59;21.70;99.90
27423;DHT22;14878;50.778;0.258;2022-07-12T05:45:01;21.90;99.90
27423;DHT22;14878;50.778;0.258;2022-07-12T05:46:02;22.00;99.90
27423;DHT22;14878;50.778;0.258;2022-07-12T05:47:03;22.20;99.90
27423;DHT22;14878;50.778;0.258;2022-07-12T05:48:05;22.30;99.90
27423;DHT22;14878;50.778;0.258;2022-07-12T05:49:05;22.50;99.90
27423;DHT22;14878;50.778;0.258;2022-07-12T05:50:07;22.60;99.90
27423;DHT22;14878;50.778;0.258;2022-07-12T05:51:08;22.70;99.90
27423;DHT22;14878;50.778;0.258;2022-07-12T05:52:27;22.80;99.90
27423;DHT22;14878;50.778;0.258;2022-07-12T05:53:46;22.80;99.90
27423;DHT22;14878;50.778;0.258;2022-07-12T05:54:47;22.80;99.90
27423;DHT22;14878;50.778;0.258;2022-07-12T05:55:52;22.60;99.90
27423;DHT22;14878;50.778;0.258;2022-07-12T05:56:54;22.50;99.90
27423;DHT22;14878;50.778;0.258;2022-07-12T05:57:54;22.50;99.90
27423;DHT22;14878;50.778;0.258;2022-07-12T05:58:55;22.40;99.90
27423;DHT22;14878;50.778;0.258;2022-07-12T05:59:56;22.40;99.90
27423;DHT22;14878;50.778;0.258;2022-07-12T06:00:57;22.30;99.90
27423;DHT22;14878;50.778;0.258;2022-07-12T06:01:58;22.10;99.90
27423;DHT22;14878;50.778;0.258;2022-07-12T06:02:59;21.90;99.90
27423;DHT22;14878;50.778;0.258;2022-07-12T06:04:00;21.80;99.90
27423;DHT22;14878;50.778;0.258;2022-07-12T06:05:00;21.60;99.90
27423;DHT22;14878;50.778;0.258;2022-07-12T06:06:01;21.50;99.90
27423;DHT22;14878;50.778;0.258;2022-07-12T06:07:02;21.50;99.90
27423;DHT22;14878;50.778;0.258;2022-07-12T06:08:03;21.60;99.90
27423;DHT22;14878;50.778;0.258;2022-07-12T06:09:07;21.70;99.90
27423;DHT22;14878;50.778;0.258;2022-07-12T06:10:08;21.70;99.90
27423;DHT22;14878;50.778;0.258;2022-07-12T06:11:13;21.80;99.90
27423;DHT22;14878;50.778;0.258;2022-07-12T06:12:13;21.80;99.90
27423;DHT22;14878;50.778;0.258;2022-07-12T06:13:14;21.90;99.90
27423;DHT22;14878;50.778;0.258;2022-07-12T06:14:15;21.80;99.90
27423;DHT22;14878;50.778;0.258;2022-07-12T06:15:16;21.80;99.90
27423;DHT22;14878;50.778;0.258;2022-07-12T06:16:17;21.90;99.90
27423;DHT22;14878;50.778;0.258;2022-07-12T06:17:18;21.90;99.90
27423;DHT22;14878;50.778;0.258;2022-07-12T06:18:22;21.90;99.90
27423;DHT22;14878;50.778;0.258;2022-07-12T06:19:23;21.80;99.90
27423;DHT22;14878;50.778;0.258;2022-07-12T06:20:24;21.80;99.90
27423;DHT22;14878;50.778;0.258;2022-07-12T06:21:25;21.80;99.90
27423;DHT22;14878;50.778;0.258;2022-07-12T06:22:26;21.80;99.90
27423;DHT22;14878;50.778;0.258;2022-07-12T06:23:27;21.80;99.90
27423;DHT22;14878;50.778;0.258;2022-07-12T06:24:28;21.90;99.90
27423;DHT22;14878;50.778;0.258;2022-07-12T06:25:29;22.00;99.90
27423;DHT22;14878;50.778;0.258;2022-07-12T06:26:30;22.00;99.90
27423;DHT22;14878;50.778;0.258;2022-07-12T06:27:31;22.10;99.90
27423;DHT22;14878;50.778;0.258;2022-07-12T06:28:35;22.20;99.90